sensor_id;sensor_type;location;lat;lon;timestamp;P1;durP1;ratioP1;P2;durP2;ratioP2
56285;SDS011;42191;47.562;9.686;2023-04-15T00:01:29;39.40;;;36.90;;
56285;SDS011;42191;47.562;9.686;2023-04-15T00:03:58;40.55;;;38.05;;
56285;SDS011;42191;47.562;9.686;2023-04-15T00:06:24;38.58;;;36.05;;
56285;SDS011;42191;47.562;9.686;2023-04-15T00:08:50;39.45;;;36.80;;
56285;SDS011;42191;47.562;9.686;2023-04-15T00:11:17;39.40;;;37.00;;
56285;SDS011;42191;47.562;9.686;2023-04-15T00:13:44;39.47;;;37.08;;
56285;SDS011;42191;47.562;9.686;2023-04-15T00:16:11;39.45;;;36.97;;
56285;SDS011;42191;47.562;9.686;2023-04-15T00:18:37;37.78;;;35.45;;
56285;SDS011;42191;47.562;9.686;2023-04-15T00:21:03;40.47;;;38.00;;
56285;SDS011;42191;47.562;9.686;2023-04-15T00:23:30;37.75;;;35.50;;
56285;SDS011;42191;47.562;9.686;2023-04-15T00:25:56;39.42;;;37.03;;
56285;SDS011;42191;47.562;9.686;2023-04-15T00:28:22;39.83;;;37.42;;
56285;SDS011;42191;47.562;9.686;2023-04-15T00:30:48;39.70;;;37.33;;
56285;SDS011;42191;47.562;9.686;2023-04-15T00:33:15;37.70;;;35.40;;
56285;SDS011;42191;47.562;9.686;2023-04-15T00:35:41;39.13;;;36.63;;
56285;SDS011;42191;47.562;9.686;2023-04-15T00:38:08;38.15;;;35.83;;
56285;SDS011;42191;47.562;9.686;2023-04-15T00:40:34;39.25;;;36.85;;
56285;SDS011;42191;47.562;9.686;2023-04-15T00:43:00;38.15;;;35.85;;
56285;SDS011;42191;47.562;9.686;2023-04-15T00:45:26;39.08;;;36.75;;
56285;SDS011;42191;47.562;9.686;2023-04-15T00:47:53;38.33;;;36.03;;
56285;SDS011;42191;47.562;9.686;2023-04-15T00:50:19;38.22;;;35.92;;
56285;SDS011;42191;47.562;9.686;2023-04-15T00:52:46;37.28;;;34.95;;
56285;SDS011;42191;47.562;9.686;2023-04-15T00:55:12;39.33;;;36.92;;
56285;SDS011;42191;47.562;9.686;2023-04-15T00:57:38;37.95;;;35.65;;
56285;SDS011;42191;47.562;9.686;2023-04-15T01:00:05;39.95;;;37.53;;
56285;SDS011;42191;47.562;9.686;2023-04-15T01:02:33;39.60;;;37.20;;
56285;SDS011;42191;47.562;9.686;2023-04-15T01:05:00;38.63;;;36.28;;
56285;SDS011;42191;47.562;9.686;2023-04-15T01:07:28;38.25;;;35.97;;
56285;SDS011;42191;47.562;9.686;2023-04-15T01:09:54;38.40;;;36.15;;
56285;SDS011;42191;47.562;9.686;2023-04-15T01:12:21;37.58;;;35.28;;
56285;SDS011;42191;47.562;9.686;2023-04-15T01:14:48;37.72;;;35.47;;
56285;SDS011;42191;47.562;9.686;2023-04-15T01:17:15;39.88;;;37.47;;
56285;SDS011;42191;47.562;9.686;2023-04-15T01:19:41;38.88;;;36.58;;
56285;SDS011;42191;47.562;9.686;2023-04-15T01:22:08;37.78;;;35.55;;
56285;SDS011;42191;47.562;9.686;2023-04-15T01:24:34;37.10;;;34.90;;
56285;SDS011;42191;47.562;9.686;2023-04-15T01:27:00;39.22;;;36.92;;
56285;SDS011;42191;47.562;9.686;2023-04-15T01:29:29;39.92;;;37.42;;
56285;SDS011;42191;47.562;9.686;2023-04-15T01:31:56;38.65;;;36.25;;
56285;SDS011;42191;47.562;9.686;2023-04-15T01:34:22;38.53;;;36.13;;
56285;SDS011;42191;47.562;9.686;2023-04-15T01:36:48;40.10;;;37.70;;
56285;SDS011;42191;47.562;9.686;2023-04-15T01:39:15;38.38;;;36.08;;
56285;SDS011;42191;47.562;9.686;2023-04-15T01:41:41;38.42;;;36.13;;
56285;SDS011;42191;47.562;9.686;2023-04-15T01:44:08;41.17;;;38.67;;
56285;SDS011;42191;47.562;9.686;2023-04-15T01:46:34;38.80;;;36.50;;
56285;SDS011;42191;47.562;9.686;2023-04-15T01:49:00;38.80;;;36.50;;
56285;SDS011;42191;47.562;9.686;2023-04-15T01:51:26;37.05;;;34.85;;
56285;SDS011;42191;47.562;9.686;2023-04-15T01:53:52;37.80;;;35.60;;
56285;SDS011;42191;47.562;9.686;2023-04-15T01:56:21;39.63;;;37.22;;
56285;SDS011;42191;47.562;9.686;2023-04-15T01:58:48;38.80;;;36.50;;
56285;SDS011;42191;47.562;9.686;2023-04-15T02:01:14;39.75;;;37.40;;
56285;SDS011;42191;47.562;9.686;2023-04-15T02:03:43;38.67;;;36.28;;
56285;SDS011;42191;47.562;9.686;2023-04-15T02:06:09;38.17;;;35.88;;
56285;SDS011;42191;47.562;9.686;2023-04-15T02:08:36;38.92;;;36.33;;
56285;SDS011;42191;47.562;9.686;2023-04-15T02:11:02;39.35;;;36.90;;
56285;SDS011;42191;47.562;9.686;2023-04-15T02:13:28;39.85;;;37.22;;
56285;SDS011;42191;47.562;9.686;2023-04-15T02:15:54;37.90;;;35.67;;
56285;SDS011;42191;47.562;9.686;2023-04-15T02:18:21;40.65;;;37.80;;
56285;SDS011;42191;47.562;9.686;2023-04-15T02:20:47;40.28;;;37.83;;
56285;SDS011;42191;47.562;9.686;2023-04-15T02:23:15;39.47;;;37.13;;
56285;SDS011;42191;47.562;9.686;2023-04-15T02:25:41;39.03;;;36.63;;
56285;SDS011;42191;47.562;9.686;2023-04-15T02:28:07;38.25;;;36.03;;
56285;SDS011;42191;47.562;9.686;2023-04-15T02:30:33;40.72;;;38.33;;
56285;SDS011;42191;47.562;9.686;2023-04-15T02:32:59;38.35;;;36.05;;
56285;SDS011;42191;47.562;9.686;2023-04-15T02:35:26;38.63;;;36.33;;
56285;SDS011;42191;47.562;9.686;2023-04-15T02:37:52;40.33;;;37.72;;
56285;SDS011;42191;47.562;9.686;2023-04-15T02:40:18;39.20;;;36.90;;
56285;SDS011;42191;47.562;9.686;2023-04-15T02:42:44;38.45;;;36.08;;
56285;SDS011;42191;47.562;9.686;2023-04-15T02:45:10;40.20;;;37.80;;
56285;SDS011;42191;47.562;9.686;2023-04-15T02:47:36;38.13;;;35.90;;
56285;SDS011;42191;47.562;9.686;2023-04-15T02:50:08;39.30;;;37.00;;
56285;SDS011;42191;47.562;9.686;2023-04-15T02:52:37;38.20;;;35.80;;
56285;SDS011;42191;47.562;9.686;2023-04-15T02:55:04;39.90;;;37.50;;
56285;SDS011;42191;47.562;9.686;2023-04-15T02:57:30;38.75;;;36.45;;
56285;SDS011;42191;47.562;9.686;2023-04-15T02:59:57;39.13;;;36.72;;
56285;SDS011;42191;47.562;9.686;2023-04-15T03:02:23;40.95;;;38.55;;
56285;SDS011;42191;47.562;9.686;2023-04-15T03:04:49;39.35;;;37.05;;
56285;SDS011;42191;47.562;9.686;2023-04-15T03:07:16;40.38;;;37.97;;
56285;SDS011;42191;47.562;9.686;2023-04-15T03:09:42;38.65;;;36.25;;
56285;SDS011;42191;47.562;9.686;2023-04-15T03:12:09;39.65;;;37.13;;
56285;SDS011;42191;47.562;9.686;2023-04-15T03:14:35;38.78;;;36.47;;
56285;SDS011;42191;47.562;9.686;2023-04-15T03:17:01;37.40;;;35.20;;
56285;SDS011;42191;47.562;9.686;2023-04-15T03:19:27;38.97;;;36.67;;
56285;SDS011;42191;47.562;9.686;2023-04-15T03:21:53;39.22;;;36.92;;
56285;SDS011;42191;47.562;9.686;2023-04-15T03:24:19;40.28;;;37.83;;
56285;SDS011;42191;47.562;9.686;2023-04-15T03:26:46;40.10;;;37.60;;
56285;SDS011;42191;47.562;9.686;2023-04-15T03:29:12;40.63;;;38.03;;
56285;SDS011;42191;47.562;9.686;2023-04-15T03:31:38;38.67;;;36.38;;
56285;SDS011;42191;47.562;9.686;2023-04-15T03:34:04;39.70;;;37.25;;
56285;SDS011;42191;47.562;9.686;2023-04-15T03:36:30;40.38;;;37.85;;
56285;SDS011;42191;47.562;9.686;2023-04-15T03:38:59;38.65;;;36.35;;
56285;SDS011;42191;47.562;9.686;2023-04-15T03:41:28;40.58;;;38.17;;
56285;SDS011;42191;47.562;9.686;2023-04-15T03:43:55;38.22;;;35.85;;
56285;SDS011;42191;47.562;9.686;2023-04-15T03:46:21;38.38;;;35.97;;
56285;SDS011;42191;47.562;9.686;2023-04-15T03:48:47;39.25;;;36.85;;
56285;SDS011;42191;47.562;9.686;2023-04-15T03:51:13;38.00;;;35.70;;
56285;SDS011;42191;47.562;9.686;2023-04-15T03:53:39;40.08;;;37.75;;
56285;SDS011;42191;47.562;9.686;2023-04-15T03:56:05;40.60;;;38.20;;
56285;SDS011;42191;47.562;9.686;2023-04-15T03:58:31;39.63;;;37.30;;
56285;SDS011;42191;47.562;9.686;2023-04-15T04:00:57;39.72;;;37.38;;
56285;SDS011;42191;47.562;9.686;2023-04-15T04:03:23;38.38;;;36.08;;
56285;SDS011;42191;47.562;9.686;2023-04-15T04:05:50;38.92;;;36.63;;
56285;SDS011;42191;47.562;9.686;2023-04-15T04:08:16;38.10;;;35.78;;
56285;SDS011;42191;47.562;9.686;2023-04-15T04:10:43;39.55;;;37.15;;
56285;SDS011;42191;47.562;9.686;2023-04-15T04:13:09;36.92;;;34.80;;
56285;SDS011;42191;47.562;9.686;2023-04-15T04:15:35;39.70;;;37.30;;
56285;SDS011;42191;47.562;9.686;2023-04-15T04:18:01;40.28;;;37.88;;
56285;SDS011;42191;47.562;9.686;2023-04-15T04:20:27;39.22;;;36.90;;
56285;SDS011;42191;47.562;9.686;2023-04-15T04:22:55;41.00;;;38.60;;
56285;SDS011;42191;47.562;9.686;2023-04-15T04:25:22;39.28;;;36.78;;
56285;SDS011;42191;47.562;9.686;2023-04-15T04:27:48;39.47;;;37.17;;
56285;SDS011;42191;47.562;9.686;2023-04-15T04:30:14;40.92;;;38.42;;
56285;SDS011;42191;47.562;9.686;2023-04-15T04:32:40;39.33;;;36.88;;
56285;SDS011;42191;47.562;9.686;2023-04-15T04:35:07;39.45;;;37.05;;
56285;SDS011;42191;47.562;9.686;2023-04-15T04:37:33;39.85;;;37.45;;
56285;SDS011;42191;47.562;9.686;2023-04-15T04:39:59;39.65;;;37.25;;
56285;SDS011;42191;47.562;9.686;2023-04-15T04:42:25;38.72;;;36.38;;
56285;SDS011;42191;47.562;9.686;2023-04-15T04:44:51;40.58;;;38.17;;
56285;SDS011;42191;47.562;9.686;2023-04-15T04:47:17;37.08;;;34.78;;
56285;SDS011;42191;47.562;9.686;2023-04-15T04:49:43;39.03;;;36.70;;
56285;SDS011;42191;47.562;9.686;2023-04-15T04:52:09;40.22;;;37.63;;
56285;SDS011;42191;47.562;9.686;2023-04-15T04:54:36;39.85;;;37.42;;
56285;SDS011;42191;47.562;9.686;2023-04-15T04:57:02;39.10;;;36.70;;
56285;SDS011;42191;47.562;9.686;2023-04-15T04:59:28;39.40;;;37.08;;
56285;SDS011;42191;47.562;9.686;2023-04-15T05:01:54;39.25;;;36.95;;
56285;SDS011;42191;47.562;9.686;2023-04-15T05:04:20;40.70;;;38.30;;
56285;SDS011;42191;47.562;9.686;2023-04-15T05:06:46;41.10;;;38.60;;
56285;SDS011;42191;47.562;9.686;2023-04-15T05:09:13;40.05;;;37.65;;
56285;SDS011;42191;47.562;9.686;2023-04-15T05:11:39;39.00;;;36.60;;
56285;SDS011;42191;47.562;9.686;2023-04-15T05:14:05;38.03;;;35.72;;
56285;SDS011;42191;47.562;9.686;2023-04-15T05:16:31;39.83;;;37.33;;
56285;SDS011;42191;47.562;9.686;2023-04-15T05:18:57;39.28;;;36.92;;
56285;SDS011;42191;47.562;9.686;2023-04-15T05:21:23;39.05;;;36.70;;
56285;SDS011;42191;47.562;9.686;2023-04-15T05:23:50;41.65;;;39.00;;
56285;SDS011;42191;47.562;9.686;2023-04-15T05:26:16;41.03;;;38.63;;
56285;SDS011;42191;47.562;9.686;2023-04-15T05:28:42;38.63;;;36.33;;
56285;SDS011;42191;47.562;9.686;2023-04-15T05:31:08;39.53;;;37.22;;
56285;SDS011;42191;47.562;9.686;2023-04-15T05:33:34;39.28;;;36.80;;
56285;SDS011;42191;47.562;9.686;2023-04-15T05:36:00;37.65;;;35.45;;
56285;SDS011;42191;47.562;9.686;2023-04-15T05:38:26;41.58;;;38.97;;
56285;SDS011;42191;47.562;9.686;2023-04-15T05:40:52;38.05;;;35.75;;
56285;SDS011;42191;47.562;9.686;2023-04-15T05:43:19;38.60;;;35.92;;
56285;SDS011;42191;47.562;9.686;2023-04-15T05:45:45;40.38;;;37.67;;
56285;SDS011;42191;47.562;9.686;2023-04-15T05:48:11;39.00;;;36.70;;
56285;SDS011;42191;47.562;9.686;2023-04-15T05:50:39;38.58;;;36.28;;
56285;SDS011;42191;47.562;9.686;2023-04-15T05:53:06;39.60;;;37.28;;
56285;SDS011;42191;47.562;9.686;2023-04-15T05:55:32;38.60;;;36.30;;
56285;SDS011;42191;47.562;9.686;2023-04-15T05:57:59;37.35;;;35.05;;
56285;SDS011;42191;47.562;9.686;2023-04-15T06:00:25;37.78;;;35.47;;
56285;SDS011;42191;47.562;9.686;2023-04-15T06:02:51;39.22;;;36.80;;
56285;SDS011;42191;47.562;9.686;2023-04-15T06:05:17;38.60;;;36.38;;
56285;SDS011;42191;47.562;9.686;2023-04-15T06:07:43;39.20;;;36.90;;
56285;SDS011;42191;47.562;9.686;2023-04-15T06:10:10;37.75;;;35.53;;
56285;SDS011;42191;47.562;9.686;2023-04-15T06:12:36;39.45;;;37.05;;
56285;SDS011;42191;47.562;9.686;2023-04-15T06:15:02;38.72;;;36.22;;
56285;SDS011;42191;47.562;9.686;2023-04-15T06:17:30;39.40;;;37.05;;
56285;SDS011;42191;47.562;9.686;2023-04-15T06:19:56;39.20;;;36.70;;
56285;SDS011;42191;47.562;9.686;2023-04-15T06:22:22;38.58;;;36.28;;
56285;SDS011;42191;47.562;9.686;2023-04-15T06:24:50;37.50;;;35.28;;
56285;SDS011;42191;47.562;9.686;2023-04-15T06:27:17;36.45;;;34.33;;
56285;SDS011;42191;47.562;9.686;2023-04-15T06:29:43;37.22;;;35.03;;
56285;SDS011;42191;47.562;9.686;2023-04-15T06:32:09;38.17;;;35.78;;
56285;SDS011;42191;47.562;9.686;2023-04-15T06:34:36;38.38;;;35.95;;
56285;SDS011;42191;47.562;9.686;2023-04-15T06:37:02;36.75;;;34.55;;
56285;SDS011;42191;47.562;9.686;2023-04-15T06:39:28;38.40;;;36.10;;
56285;SDS011;42191;47.562;9.686;2023-04-15T06:41:54;37.63;;;35.33;;
56285;SDS011;42191;47.562;9.686;2023-04-15T06:44:20;35.47;;;33.38;;
56285;SDS011;42191;47.562;9.686;2023-04-15T06:46:46;37.15;;;34.95;;
56285;SDS011;42191;47.562;9.686;2023-04-15T06:49:13;38.35;;;36.05;;
56285;SDS011;42191;47.562;9.686;2023-04-15T06:51:39;37.15;;;34.95;;
56285;SDS011;42191;47.562;9.686;2023-04-15T06:54:06;35.90;;;33.78;;
56285;SDS011;42191;47.562;9.686;2023-04-15T06:56:32;35.90;;;33.80;;
56285;SDS011;42191;47.562;9.686;2023-04-15T06:58:58;38.35;;;36.05;;
56285;SDS011;42191;47.562;9.686;2023-04-15T07:01:25;38.00;;;35.70;;
56285;SDS011;42191;47.562;9.686;2023-04-15T07:03:51;37.85;;;35.63;;
56285;SDS011;42191;47.562;9.686;2023-04-15T07:06:18;37.83;;;35.63;;
56285;SDS011;42191;47.562;9.686;2023-04-15T07:08:45;35.72;;;33.63;;
56285;SDS011;42191;47.562;9.686;2023-04-15T07:11:11;36.20;;;34.08;;
56285;SDS011;42191;47.562;9.686;2023-04-15T07:13:38;36.72;;;34.53;;
56285;SDS011;42191;47.562;9.686;2023-04-15T07:16:04;36.75;;;34.55;;
56285;SDS011;42191;47.562;9.686;2023-04-15T07:18:30;36.45;;;34.28;;
56285;SDS011;42191;47.562;9.686;2023-04-15T07:20:56;36.58;;;34.38;;
56285;SDS011;42191;47.562;9.686;2023-04-15T07:23:23;37.35;;;35.15;;
56285;SDS011;42191;47.562;9.686;2023-04-15T07:25:49;36.88;;;34.67;;
56285;SDS011;42191;47.562;9.686;2023-04-15T07:28:16;36.60;;;34.33;;
56285;SDS011;42191;47.562;9.686;2023-04-15T07:30:42;36.80;;;34.60;;
56285;SDS011;42191;47.562;9.686;2023-04-15T07:33:08;37.03;;;34.72;;
56285;SDS011;42191;47.562;9.686;2023-04-15T07:35:34;36.22;;;34.10;;
56285;SDS011;42191;47.562;9.686;2023-04-15T07:38:00;37.05;;;34.75;;
56285;SDS011;42191;47.562;9.686;2023-04-15T07:40:26;36.55;;;34.35;;
56285;SDS011;42191;47.562;9.686;2023-04-15T07:42:53;36.47;;;34.28;;
56285;SDS011;42191;47.562;9.686;2023-04-15T07:45:22;37.22;;;34.97;;
56285;SDS011;42191;47.562;9.686;2023-04-15T07:47:48;33.42;;;31.35;;
56285;SDS011;42191;47.562;9.686;2023-04-15T07:50:15;37.38;;;35.15;;
56285;SDS011;42191;47.562;9.686;2023-04-15T07:52:42;36.53;;;34.22;;
56285;SDS011;42191;47.562;9.686;2023-04-15T07:55:08;35.40;;;33.30;;
56285;SDS011;42191;47.562;9.686;2023-04-15T07:57:35;36.75;;;34.35;;
56285;SDS011;42191;47.562;9.686;2023-04-15T08:00:02;36.22;;;34.03;;
56285;SDS011;42191;47.562;9.686;2023-04-15T08:02:29;36.80;;;34.60;;
56285;SDS011;42191;47.562;9.686;2023-04-15T08:04:56;37.25;;;35.05;;
56285;SDS011;42191;47.562;9.686;2023-04-15T08:07:22;35.05;;;32.92;;
56285;SDS011;42191;47.562;9.686;2023-04-15T08:09:49;37.72;;;35.53;;
56285;SDS011;42191;47.562;9.686;2023-04-15T08:12:15;34.85;;;32.65;;
56285;SDS011;42191;47.562;9.686;2023-04-15T08:14:41;35.75;;;33.65;;
56285;SDS011;42191;47.562;9.686;2023-04-15T08:17:07;34.08;;;32.08;;
56285;SDS011;42191;47.562;9.686;2023-04-15T08:19:33;35.88;;;33.78;;
56285;SDS011;42191;47.562;9.686;2023-04-15T08:22:00;36.40;;;34.20;;
56285;SDS011;42191;47.562;9.686;2023-04-15T08:24:26;34.67;;;32.60;;
56285;SDS011;42191;47.562;9.686;2023-04-15T08:26:52;37.22;;;35.00;;
56285;SDS011;42191;47.562;9.686;2023-04-15T08:29:18;34.78;;;32.67;;
56285;SDS011;42191;47.562;9.686;2023-04-15T08:31:44;35.03;;;32.92;;
56285;SDS011;42191;47.562;9.686;2023-04-15T08:34:11;34.88;;;32.78;;
56285;SDS011;42191;47.562;9.686;2023-04-15T08:36:37;34.42;;;32.38;;
56285;SDS011;42191;47.562;9.686;2023-04-15T08:39:03;35.22;;;33.17;;
56285;SDS011;42191;47.562;9.686;2023-04-15T08:41:39;35.25;;;33.15;;
56285;SDS011;42191;47.562;9.686;2023-04-15T08:44:25;35.95;;;33.65;;
56285;SDS011;42191;47.562;9.686;2023-04-15T08:46:55;35.65;;;33.45;;
56285;SDS011;42191;47.562;9.686;2023-04-15T08:49:25;37.03;;;34.83;;
56285;SDS011;42191;47.562;9.686;2023-04-15T08:51:52;36.72;;;34.53;;
56285;SDS011;42191;47.562;9.686;2023-04-15T08:54:22;34.85;;;32.85;;
56285;SDS011;42191;47.562;9.686;2023-04-15T08:56:48;34.53;;;32.30;;
56285;SDS011;42191;47.562;9.686;2023-04-15T08:59:15;34.00;;;31.98;;
56285;SDS011;42191;47.562;9.686;2023-04-15T09:01:42;34.38;;;32.33;;
56285;SDS011;42191;47.562;9.686;2023-04-15T09:04:08;33.97;;;31.88;;
56285;SDS011;42191;47.562;9.686;2023-04-15T09:06:36;35.35;;;33.15;;
56285;SDS011;42191;47.562;9.686;2023-04-15T09:09:04;33.22;;;31.02;;
56285;SDS011;42191;47.562;9.686;2023-04-15T09:11:31;34.78;;;32.53;;
56285;SDS011;42191;47.562;9.686;2023-04-15T09:13:57;34.13;;;32.05;;
56285;SDS011;42191;47.562;9.686;2023-04-15T09:16:23;33.35;;;31.35;;
56285;SDS011;42191;47.562;9.686;2023-04-15T09:18:50;34.28;;;32.28;;
56285;SDS011;42191;47.562;9.686;2023-04-15T09:21:16;33.83;;;31.75;;
56285;SDS011;42191;47.562;9.686;2023-04-15T09:26:32;34.35;;;32.25;;
56285;SDS011;42191;47.562;9.686;2023-04-15T09:29:05;33.53;;;31.45;;
56285;SDS011;42191;47.562;9.686;2023-04-15T09:31:33;35.08;;;32.60;;
56285;SDS011;42191;47.562;9.686;2023-04-15T09:34:00;34.72;;;32.55;;
56285;SDS011;42191;47.562;9.686;2023-04-15T09:36:27;33.13;;;30.67;;
56285;SDS011;42191;47.562;9.686;2023-04-15T09:38:58;33.83;;;31.73;;
56285;SDS011;42191;47.562;9.686;2023-04-15T09:41:25;32.88;;;30.88;;
56285;SDS011;42191;47.562;9.686;2023-04-15T09:43:51;32.45;;;30.48;;
56285;SDS011;42191;47.562;9.686;2023-04-15T09:46:17;32.33;;;30.33;;
56285;SDS011;42191;47.562;9.686;2023-04-15T09:48:44;34.20;;;32.10;;
56285;SDS011;42191;47.562;9.686;2023-04-15T09:51:10;35.03;;;32.83;;
56285;SDS011;42191;47.562;9.686;2023-04-15T09:53:36;32.55;;;30.52;;
56285;SDS011;42191;47.562;9.686;2023-04-15T09:56:02;32.60;;;30.58;;
56285;SDS011;42191;47.562;9.686;2023-04-15T09:58:32;34.35;;;32.35;;
56285;SDS011;42191;47.562;9.686;2023-04-15T10:01:01;35.22;;;33.05;;
56285;SDS011;42191;47.562;9.686;2023-04-15T10:03:30;32.65;;;30.65;;
56285;SDS011;42191;47.562;9.686;2023-04-15T10:05:58;33.45;;;31.30;;
56285;SDS011;42191;47.562;9.686;2023-04-15T10:08:28;33.50;;;31.50;;
56285;SDS011;42191;47.562;9.686;2023-04-15T10:10:56;33.25;;;31.17;;
56285;SDS011;42191;47.562;9.686;2023-04-15T10:13:24;33.90;;;31.90;;
56285;SDS011;42191;47.562;9.686;2023-04-15T10:15:57;33.30;;;31.20;;
56285;SDS011;42191;47.562;9.686;2023-04-15T10:18:33;33.67;;;31.67;;
56285;SDS011;42191;47.562;9.686;2023-04-15T10:21:01;34.08;;;31.88;;
56285;SDS011;42191;47.562;9.686;2023-04-15T10:23:29;32.03;;;29.92;;
56285;SDS011;42191;47.562;9.686;2023-04-15T10:25:56;35.22;;;32.33;;
56285;SDS011;42191;47.562;9.686;2023-04-15T10:28:23;31.85;;;29.95;;
56285;SDS011;42191;47.562;9.686;2023-04-15T10:30:50;32.65;;;30.65;;
56285;SDS011;42191;47.562;9.686;2023-04-15T10:33:19;33.85;;;31.80;;
56285;SDS011;42191;47.562;9.686;2023-04-15T10:35:47;33.90;;;31.90;;
56285;SDS011;42191;47.562;9.686;2023-04-15T10:38:31;33.22;;;31.23;;
56285;SDS011;42191;47.562;9.686;2023-04-15T10:41:20;33.97;;;31.88;;
56285;SDS011;42191;47.562;9.686;2023-04-15T10:49:09;32.10;;;30.00;;
56285;SDS011;42191;47.562;9.686;2023-04-15T10:51:43;33.17;;;30.98;;
56285;SDS011;42191;47.562;9.686;2023-04-15T10:54:44;31.48;;;29.58;;
56285;SDS011;42191;47.562;9.686;2023-04-15T10:59:36;31.17;;;29.33;;
56285;SDS011;42191;47.562;9.686;2023-04-15T11:02:06;32.55;;;30.55;;
56285;SDS011;42191;47.562;9.686;2023-04-15T11:12:41;30.85;;;28.95;;
56285;SDS011;42191;47.562;9.686;2023-04-15T11:20:43;31.55;;;29.52;;
56285;SDS011;42191;47.562;9.686;2023-04-15T11:23:18;32.63;;;30.63;;
56285;SDS011;42191;47.562;9.686;2023-04-15T11:25:53;35.08;;;32.88;;
56285;SDS011;42191;47.562;9.686;2023-04-15T11:28:23;33.33;;;31.27;;
56285;SDS011;42191;47.562;9.686;2023-04-15T11:30:51;32.78;;;30.70;;
56285;SDS011;42191;47.562;9.686;2023-04-15T11:33:19;32.50;;;30.48;;
56285;SDS011;42191;47.562;9.686;2023-04-15T11:35:46;32.95;;;30.95;;
56285;SDS011;42191;47.562;9.686;2023-04-15T11:38:12;32.75;;;30.75;;
56285;SDS011;42191;47.562;9.686;2023-04-15T11:40:40;33.15;;;31.15;;
56285;SDS011;42191;47.562;9.686;2023-04-15T11:45:35;33.88;;;31.65;;
56285;SDS011;42191;47.562;9.686;2023-04-15T11:48:08;32.83;;;30.77;;
56285;SDS011;42191;47.562;9.686;2023-04-15T11:50:36;32.75;;;30.73;;
56285;SDS011;42191;47.562;9.686;2023-04-15T11:53:04;33.08;;;30.98;;
56285;SDS011;42191;47.562;9.686;2023-04-15T11:55:48;34.65;;;32.42;;
56285;SDS011;42191;47.562;9.686;2023-04-15T11:58:17;33.05;;;31.05;;
56285;SDS011;42191;47.562;9.686;2023-04-15T12:00:52;31.30;;;29.33;;
56285;SDS011;42191;47.562;9.686;2023-04-15T12:06:09;35.10;;;33.00;;
56285;SDS011;42191;47.562;9.686;2023-04-15T12:13:58;32.63;;;30.52;;
56285;SDS011;42191;47.562;9.686;2023-04-15T12:16:27;32.45;;;30.45;;
56285;SDS011;42191;47.562;9.686;2023-04-15T12:18:55;33.00;;;30.88;;
56285;SDS011;42191;47.562;9.686;2023-04-15T12:21:26;32.78;;;30.67;;
56285;SDS011;42191;47.562;9.686;2023-04-15T12:24:00;33.60;;;31.33;;
56285;SDS011;42191;47.562;9.686;2023-04-15T12:29:17;34.30;;;32.10;;
56285;SDS011;42191;47.562;9.686;2023-04-15T12:31:47;33.65;;;31.55;;
56285;SDS011;42191;47.562;9.686;2023-04-15T12:34:15;34.33;;;32.10;;
56285;SDS011;42191;47.562;9.686;2023-04-15T12:36:42;32.97;;;30.90;;
56285;SDS011;42191;47.562;9.686;2023-04-15T12:39:08;32.63;;;30.58;;
56285;SDS011;42191;47.562;9.686;2023-04-15T12:41:35;34.13;;;31.92;;
56285;SDS011;42191;47.562;9.686;2023-04-15T12:44:01;35.05;;;32.85;;
56285;SDS011;42191;47.562;9.686;2023-04-15T12:46:27;34.25;;;32.10;;
56285;SDS011;42191;47.562;9.686;2023-04-15T12:48:54;34.08;;;31.92;;
56285;SDS011;42191;47.562;9.686;2023-04-15T12:51:20;34.80;;;32.60;;
56285;SDS011;42191;47.562;9.686;2023-04-15T12:53:47;33.92;;;31.63;;
56285;SDS011;42191;47.562;9.686;2023-04-15T12:56:13;34.60;;;32.38;;
56285;SDS011;42191;47.562;9.686;2023-04-15T12:58:40;33.42;;;31.27;;
56285;SDS011;42191;47.562;9.686;2023-04-15T13:01:07;33.97;;;31.88;;
56285;SDS011;42191;47.562;9.686;2023-04-15T13:03:34;34.38;;;32.08;;
56285;SDS011;42191;47.562;9.686;2023-04-15T13:06:00;32.15;;;30.05;;
56285;SDS011;42191;47.562;9.686;2023-04-15T13:08:28;34.75;;;32.35;;
56285;SDS011;42191;47.562;9.686;2023-04-15T13:10:55;34.53;;;32.08;;
56285;SDS011;42191;47.562;9.686;2023-04-15T13:13:21;33.55;;;31.35;;
56285;SDS011;42191;47.562;9.686;2023-04-15T13:15:47;33.47;;;31.38;;
56285;SDS011;42191;47.562;9.686;2023-04-15T13:18:13;35.45;;;33.08;;
56285;SDS011;42191;47.562;9.686;2023-04-15T13:20:40;34.15;;;31.92;;
56285;SDS011;42191;47.562;9.686;2023-04-15T13:23:06;33.42;;;31.02;;
56285;SDS011;42191;47.562;9.686;2023-04-15T13:25:33;33.85;;;31.65;;
56285;SDS011;42191;47.562;9.686;2023-04-15T13:27:59;33.45;;;31.25;;
56285;SDS011;42191;47.562;9.686;2023-04-15T13:30:25;34.85;;;32.65;;
56285;SDS011;42191;47.562;9.686;2023-04-15T13:32:52;33.92;;;31.73;;
56285;SDS011;42191;47.562;9.686;2023-04-15T13:35:18;33.45;;;31.23;;
56285;SDS011;42191;47.562;9.686;2023-04-15T13:37:45;32.80;;;30.70;;
56285;SDS011;42191;47.562;9.686;2023-04-15T13:40:12;34.88;;;32.67;;
56285;SDS011;42191;47.562;9.686;2023-04-15T13:42:38;33.22;;;31.13;;
56285;SDS011;42191;47.562;9.686;2023-04-15T13:45:05;35.88;;;33.20;;
56285;SDS011;42191;47.562;9.686;2023-04-15T13:47:31;33.60;;;31.40;;
56285;SDS011;42191;47.562;9.686;2023-04-15T13:49:57;33.75;;;31.55;;
56285;SDS011;42191;47.562;9.686;2023-04-15T13:52:23;34.03;;;31.92;;
56285;SDS011;42191;47.562;9.686;2023-04-15T13:54:49;34.67;;;32.22;;
56285;SDS011;42191;47.562;9.686;2023-04-15T13:57:16;32.78;;;30.67;;
56285;SDS011;42191;47.562;9.686;2023-04-15T13:59:42;32.40;;;30.08;;
56285;SDS011;42191;47.562;9.686;2023-04-15T14:02:08;33.05;;;30.95;;
56285;SDS011;42191;47.562;9.686;2023-04-15T14:04:35;33.33;;;31.23;;
56285;SDS011;42191;47.562;9.686;2023-04-15T14:07:01;32.58;;;30.45;;
56285;SDS011;42191;47.562;9.686;2023-04-15T14:09:27;32.70;;;30.60;;
56285;SDS011;42191;47.562;9.686;2023-04-15T14:11:53;32.95;;;30.67;;
56285;SDS011;42191;47.562;9.686;2023-04-15T14:14:20;35.15;;;32.80;;
56285;SDS011;42191;47.562;9.686;2023-04-15T14:16:49;33.17;;;31.08;;
56285;SDS011;42191;47.562;9.686;2023-04-15T14:19:15;33.60;;;31.50;;
56285;SDS011;42191;47.562;9.686;2023-04-15T14:21:41;32.67;;;30.48;;
56285;SDS011;42191;47.562;9.686;2023-04-15T14:24:07;34.25;;;32.05;;
56285;SDS011;42191;47.562;9.686;2023-04-15T14:26:33;35.90;;;33.50;;
56285;SDS011;42191;47.562;9.686;2023-04-15T14:29:00;33.20;;;31.00;;
56285;SDS011;42191;47.562;9.686;2023-04-15T14:31:26;33.47;;;31.38;;
56285;SDS011;42191;47.562;9.686;2023-04-15T14:33:52;32.75;;;30.73;;
56285;SDS011;42191;47.562;9.686;2023-04-15T14:36:18;32.38;;;30.27;;
56285;SDS011;42191;47.562;9.686;2023-04-15T14:38:44;34.03;;;31.83;;
56285;SDS011;42191;47.562;9.686;2023-04-15T14:41:10;32.03;;;30.02;;
56285;SDS011;42191;47.562;9.686;2023-04-15T14:43:36;33.70;;;31.63;;
56285;SDS011;42191;47.562;9.686;2023-04-15T14:46:02;34.22;;;32.03;;
56285;SDS011;42191;47.562;9.686;2023-04-15T14:48:29;34.55;;;32.10;;
56285;SDS011;42191;47.562;9.686;2023-04-15T14:50:55;33.28;;;31.10;;
56285;SDS011;42191;47.562;9.686;2023-04-15T14:53:23;34.40;;;32.30;;
56285;SDS011;42191;47.562;9.686;2023-04-15T14:55:49;32.63;;;30.42;;
56285;SDS011;42191;47.562;9.686;2023-04-15T14:58:15;33.33;;;31.33;;